Curry, Idaho
Current Conditions -  °F | °C
As of 10:53 PM on Friday 24 Oct 2014 (Local Time) from KTWF Reporting Station
Clear Clear  
Wind Chill: 52°   Ceiling: Unl
Heat Index: 52°   Visibility: 10mi
Dew Point: 29°   Wind: 13mph
Humidity: 41%   Direction: 170°S
Pressure: 29.99"   Gusts: NA
Location:  42.5734°N, 114.626°W
Report Text: KTWF 250453Z AUTO 17011KT 10SM CLR 11/M02 A2999 RMK AO2 SLP123 T01111017
Loading
Personal Weather Stations






























Interactive Weather Map
Tropical Storm Tracking
New forecast layout! Learn more

10-Day Weather Forecast

Advertisements
Track Severe Weather on mobile